Time;durP1;ratioP1;P1;durP2;ratioP2;P2;SDS_P1;SDS_P2;PMS_P1;PMS_P2;Temp;Humidity;BMP_temperature;BMP_pressure;BME280_temperature;BME280_humidity;BME280_pressure;Samples;Min_cycle;Max_cycle;Signal;HPM_P1;HPM_P2
2021/11/13 00:00:25;;;;;;;14.27;9.30;;;;;;;8.78;100.00;100937.75;5030526;28;20502;-49
2021/11/13 00:02:53;;;;;;;15.52;9.27;;;;;;;8.73;100.00;100937.66;5031911;28;20506;-50
2021/11/13 00:05:22;;;;;;;13.27;9.30;;;;;;;8.72;100.00;100938.75;5031384;28;20052;-53
2021/11/13 00:07:50;;;;;;;13.63;8.38;;;;;;;8.81;100.00;100939.97;5032358;28;20052;-53
2021/11/13 00:10:26;;;;;;;14.93;8.40;;;;;;;8.83;100.00;100937.81;5031570;28;20045;-48
2021/11/13 00:12:55;;;;;;;13.40;9.40;;;;;;;8.83;100.00;100942.44;5031955;28;20055;-53
2021/11/13 00:15:25;;;;;;;14.38;8.90;;;;;;;8.84;100.00;100934.00;5031638;28;20049;-51
2021/11/13 00:17:53;;;;;;;13.07;9.10;;;;;;;8.88;100.00;100937.88;5024802;28;20456;-52
2021/11/13 00:20:25;;;;;;;15.98;10.27;;;;;;;8.86;100.00;100923.72;5031454;28;20061;-52
2021/11/13 00:22:57;;;;;;;12.57;8.70;;;;;;;8.94;100.00;100917.81;5032042;28;20048;-53
2021/11/13 00:25:26;;;;;;;13.48;8.93;;;;;;;8.93;100.00;100912.66;5031814;28;20531;-53
2021/11/13 00:27:54;;;;;;;14.95;8.95;;;;;;;8.93;100.00;100902.59;5031895;28;20041;-53
2021/11/13 00:30:22;;;;;;;13.77;9.15;;;;;;;8.90;100.00;100900.41;5031315;28;20119;-50
2021/11/13 00:32:51;;;;;;;13.05;8.70;;;;;;;8.93;100.00;100904.50;5031925;28;20128;-52
2021/11/13 00:35:19;;;;;;;15.65;10.05;;;;;;;8.98;100.00;100901.03;5032097;28;20489;-49
2021/11/13 00:37:48;;;;;;;16.30;9.38;;;;;;;8.95;100.00;100902.34;5031655;28;20056;-53
2021/11/13 00:40:18;;;;;;;15.80;9.38;;;;;;;8.92;100.00;100895.53;5031457;28;20042;-52
2021/11/13 00:42:47;;;;;;;19.73;9.70;;;;;;;8.95;100.00;100889.59;5031496;28;20049;-52
2021/11/13 00:45:16;;;;;;;14.05;9.75;;;;;;;8.92;100.00;100886.53;5022122;28;20064;-52
2021/11/13 00:47:45;;;;;;;13.52;7.85;;;;;;;8.91;100.00;100876.75;5028948;28;20042;-52
2021/11/13 00:50:13;;;;;;;13.68;8.88;;;;;;;8.88;100.00;100883.53;5031825;28;20132;-52
2021/11/13 00:52:42;;;;;;;14.60;9.82;;;;;;;8.89;100.00;100882.44;5031427;28;20036;-54
2021/11/13 00:55:13;;;;;;;13.27;9.18;;;;;;;8.89;100.00;100884.34;5031672;28;20057;-52
2021/11/13 00:57:41;;;;;;;13.88;8.07;;;;;;;8.87;100.00;100870.19;5031456;28;20486;-48
2021/11/13 01:00:11;;;;;;;12.27;7.93;;;;;;;8.88;100.00;100866.41;5031446;28;20125;-54
2021/11/13 01:02:39;;;;;;;12.07;8.18;;;;;;;8.92;100.00;100871.09;5030495;28;20049;-53
2021/11/13 01:05:08;;;;;;;12.63;8.38;;;;;;;8.88;100.00;100864.50;5031597;28;20088;-52
2021/11/13 01:07:37;;;;;;;13.40;9.30;;;;;;;8.87;100.00;100864.75;5031897;28;20056;-52
2021/11/13 01:10:08;;;;;;;13.60;9.27;;;;;;;8.85;100.00;100878.63;5031044;28;20052;-53
2021/11/13 01:12:36;;;;;;;13.30;8.15;;;;;;;8.84;100.00;100857.94;5027903;28;20049;-50
2021/11/13 01:15:06;;;;;;;15.20;9.38;;;;;;;8.88;100.00;100864.50;5025918;28;20068;-52
2021/11/13 01:17:35;;;;;;;10.65;6.28;;;;;;;8.97;100.00;100862.13;5031837;28;20080;-52
2021/11/13 01:20:05;;;;;;;16.73;10.73;;;;;;;8.93;100.00;100866.47;5031407;28;20049;-49
2021/11/13 01:22:37;;;;;;;15.32;9.38;;;;;;;8.92;100.00;100875.66;5031307;28;20069;-52
2021/11/13 01:25:07;;;;;;;10.10;7.85;;;;;;;8.91;100.00;100863.16;5021192;28;20121;-53
2021/11/13 01:27:35;;;;;;;12.45;8.38;;;;;;;8.86;100.00;100863.94;5030633;28;20033;-53
2021/11/13 01:30:04;;;;;;;13.35;9.13;;;;;;;8.86;100.00;100855.78;5032546;28;20045;-53
2021/11/13 01:32:32;;;;;;;11.18;7.45;;;;;;;8.93;100.00;100850.97;5034482;28;20447;-52
2021/11/13 01:34:59;;;;;;;12.00;8.75;;;;;;;8.92;100.00;100845.78;5034044;28;20463;-52
2021/11/13 01:37:27;;;;;;;14.27;9.75;;;;;;;8.90;100.00;100840.63;5033710;28;20045;-53
2021/11/13 01:39:55;;;;;;;12.38;8.93;;;;;;;8.94;100.00;100844.44;5034625;28;20037;-52
2021/11/13 01:42:25;;;;;;;11.75;7.60;;;;;;;8.93;100.00;100839.28;5034539;28;20068;-52
2021/11/13 01:44:54;;;;;;;9.60;6.72;;;;;;;8.94;100.00;100832.75;5034598;28;20060;-52
2021/11/13 01:47:23;;;;;;;13.27;8.98;;;;;;;8.91;100.00;100825.94;5034018;28;20045;-54
2021/11/13 01:49:53;;;;;;;11.85;8.05;;;;;;;8.94;100.00;100835.47;5034830;28;20045;-53
2021/11/13 01:52:21;;;;;;;15.23;9.48;;;;;;;8.96;100.00;100830.63;5031229;28;20369;-53
2021/11/13 01:54:48;;;;;;;12.73;8.40;;;;;;;8.95;100.00;100837.13;5026134;28;20530;-53
2021/11/13 01:57:21;;;;;;;12.35;8.63;;;;;;;8.96;100.00;100826.00;5034058;28;20046;-53
2021/11/13 01:59:51;;;;;;;11.55;8.15;;;;;;;8.95;100.00;100820.84;5034631;28;20072;-51
2021/11/13 02:02:19;;;;;;;11.88;8.43;;;;;;;8.96;100.00;100826.00;5034055;28;20041;-51
2021/11/13 02:04:47;;;;;;;12.63;8.13;;;;;;;8.95;100.00;100815.41;5034073;28;20385;-52
2021/11/13 02:07:15;;;;;;;12.55;8.43;;;;;;;8.96;100.00;100819.75;5034048;28;20397;-52
2021/11/13 02:09:43;;;;;;;14.02;8.30;;;;;;;8.95;100.00;100812.69;5033569;28;20105;-53
2021/11/13 02:12:11;;;;;;;11.07;7.60;;;;;;;9.01;100.00;100816.25;5033747;28;20033;-53
2021/11/13 02:14:39;;;;;;;9.10;5.82;;;;;;;9.02;100.00;100807.00;5033884;28;20457;-49
2021/11/13 02:17:07;;;;;;;12.63;8.23;;;;;;;9.04;100.00;100805.69;5033012;28;20056;-51
2021/11/13 02:19:35;;;;;;;11.35;7.82;;;;;;;9.04;100.00;100807.56;5034080;28;20455;-52
2021/11/13 02:22:03;;;;;;;12.93;8.18;;;;;;;9.07;100.00;100807.09;5027343;28;20057;-52
2021/11/13 02:24:32;;;;;;;13.77;8.30;;;;;;;9.02;100.00;100797.00;5033628;28;20068;-51
2021/11/13 02:26:59;;;;;;;12.82;8.27;;;;;;;9.04;100.00;100800.25;5033902;28;20504;-51
2021/11/13 02:29:27;;;;;;;14.77;9.00;;;;;;;9.05;100.00;100801.09;5033666;28;20125;-52
2021/11/13 02:31:55;;;;;;;12.82;7.45;;;;;;;9.08;100.00;100803.28;5033992;28;20136;-51
2021/11/13 02:34:24;;;;;;;13.35;8.18;;;;;;;9.07;100.00;100801.66;5033805;28;20396;-52
2021/11/13 02:36:53;;;;;;;13.27;8.10;;;;;;;9.10;100.00;100792.97;5033389;28;20119;-52
2021/11/13 02:39:21;;;;;;;17.10;9.57;;;;;;;9.08;100.00;100792.41;5033609;28;20041;-53
2021/11/13 02:41:50;;;;;;;13.77;8.45;;;;;;;9.07;100.00;100790.78;5032713;28;20049;-52
2021/11/13 02:44:18;;;;;;;13.77;8.13;;;;;;;9.09;100.00;100789.44;5033512;28;20519;-51
2021/11/13 02:46:50;;;;;;;16.88;9.23;;;;;;;9.09;100.00;100785.88;5033508;28;20058;-53
2021/11/13 02:49:18;;;;;;;16.73;9.43;;;;;;;9.08;100.00;100787.78;5036128;28;20048;-50
2021/11/13 02:51:46;;;;;;;11.68;8.95;;;;;;;9.06;100.00;100795.38;5044638;28;20471;-49
2021/11/13 02:54:14;;;;;;;15.20;9.07;;;;;;;9.08;100.00;100792.41;5043546;28;20060;-51
2021/11/13 02:56:42;;;;;;;14.02;8.93;;;;;;;9.13;100.00;100795.16;5043606;28;20057;-50
2021/11/13 02:59:10;;;;;;;15.13;8.32;;;;;;;9.15;100.00;100784.84;5041711;28;20048;-53
2021/11/13 03:01:38;;;;;;;12.43;7.82;;;;;;;9.18;100.00;100781.59;5033900;28;20041;-52
2021/11/13 03:04:06;;;;;;;14.77;8.63;;;;;;;9.17;100.00;100791.66;5033330;28;20091;-49
2021/11/13 03:06:34;;;;;;;12.82;8.70;;;;;;;9.18;100.00;100795.19;5033884;28;20037;-51
2021/11/13 03:09:02;;;;;;;13.68;9.25;;;;;;;9.14;100.00;100794.09;5032813;28;20515;-52
2021/11/13 03:11:31;;;;;;;13.77;8.98;;;;;;;9.13;100.00;100795.16;5033398;28;20048;-54
2021/11/13 03:13:59;;;;;;;13.80;8.73;;;;;;;9.12;100.00;100788.09;5033547;28;20045;-50
2021/11/13 03:16:26;;;;;;;11.82;7.72;;;;;;;9.16;100.00;100789.19;5033022;28;20029;-52
2021/11/13 03:18:54;;;;;;;12.60;7.35;;;;;;;9.17;100.00;100796.28;5027473;28;20563;-52
2021/11/13 03:21:22;;;;;;;13.95;8.50;;;;;;;9.21;100.00;100796.56;5032524;28;20518;-52
2021/11/13 03:23:50;;;;;;;12.50;8.10;;;;;;;9.21;100.00;100791.13;5032748;28;20828;-53
2021/11/13 03:26:22;;;;;;;14.25;9.00;;;;;;;9.18;100.00;100792.47;5033006;28;20045;-50
2021/11/13 03:29:03;;;;;;;12.57;7.22;;;;;;;9.18;100.00;100789.75;5032517;28;20143;-50
2021/11/13 03:31:30;;;;;;;12.38;6.82;;;;;;;9.19;100.00;100788.69;5018513;28;20038;-49
2021/11/13 03:34:04;;;;;;;10.35;7.30;;;;;;;9.16;100.00;100786.47;5032691;28;20535;-51
2021/11/13 03:36:33;;;;;;;12.38;8.23;;;;;;;9.15;100.00;100788.38;5031433;28;20382;-53
2021/11/13 03:39:01;;;;;;;11.52;7.18;;;;;;;9.22;100.00;100788.16;5032396;28;20404;-52
2021/11/13 03:41:30;;;;;;;10.32;6.65;;;;;;;9.25;100.00;100795.81;5032614;28;20048;-52
2021/11/13 03:43:58;;;;;;;11.05;7.30;;;;;;;9.25;100.00;100795.00;5032688;28;20073;-51
2021/11/13 03:46:27;;;;;;;10.70;6.57;;;;;;;9.26;100.00;100783.88;5030151;28;20404;-52
2021/11/13 03:48:56;;;;;;;11.00;6.88;;;;;;;9.26;100.00;100783.03;5031693;28;20461;-51
2021/11/13 03:51:25;;;;;;;9.43;6.47;;;;;;;9.26;100.00;100772.16;5032209;28;20053;-51
2021/11/13 03:53:52;;;;;;;10.00;6.10;;;;;;;9.27;100.00;100774.63;5031727;28;20436;-50
2021/11/13 03:56:20;;;;;;;10.70;6.82;;;;;;;9.29;100.00;100777.91;5032261;28;20107;-50
2021/11/13 03:58:48;;;;;;;10.00;6.32;;;;;;;9.27;100.00;100774.63;5032020;28;20037;-53
2021/11/13 04:01:20;;;;;;;10.25;6.55;;;;;;;9.28;100.00;100781.69;5032630;28;20133;-52
2021/11/13 04:03:48;;;;;;;9.68;6.20;;;;;;;9.29;100.00;100779.81;5031765;28;20128;-55
2021/11/13 04:06:19;;;;;;;9.82;6.13;;;;;;;9.26;100.00;100781.16;5025009;28;20579;-51
2021/11/13 04:08:46;;;;;;;10.45;6.15;;;;;;;9.29;100.00;100777.09;5032143;28;20502;-52
2021/11/13 04:11:14;;;;;;;10.00;6.25;;;;;;;9.33;100.00;100773.59;5031666;28;20042;-52
2021/11/13 04:13:42;;;;;;;9.65;5.85;;;;;;;9.32;100.00;100774.66;5024344;28;20133;-49
2021/11/13 04:16:10;;;;;;;10.07;6.95;;;;;;;9.30;100.00;100778.72;5032215;28;20041;-53
2021/11/13 04:18:38;;;;;;;11.35;6.93;;;;;;;9.27;100.00;100780.06;5031633;28;20508;-53
2021/11/13 04:21:05;;;;;;;8.15;5.70;;;;;;;9.27;100.00;100785.50;5031382;28;20053;-53
2021/11/13 04:23:35;;;;;;;8.43;5.82;;;;;;;9.28;100.00;100786.31;5031804;28;20047;-56
2021/11/13 04:26:02;;;;;;;10.05;6.13;;;;;;;9.28;100.00;100792.56;5019181;28;20049;-53
2021/11/13 04:28:31;;;;;;;8.98;6.00;;;;;;;9.27;100.00;100788.22;5032065;28;20063;-50
2021/11/13 04:30:58;;;;;;;8.60;5.70;;;;;;;9.28;100.00;100783.59;5031510;28;20048;-52
2021/11/13 04:33:27;;;;;;;8.00;5.10;;;;;;;9.29;100.00;100782.53;5031905;28;20116;-52
2021/11/13 04:38:42;;;;;;;9.65;5.93;;;;;;;9.29;100.00;100783.34;5031953;28;20476;-52
2021/11/13 04:41:10;;;;;;;8.18;5.50;;;;;;;9.29;100.00;100788.78;5030513;28;20100;-53
2021/11/13 04:43:38;;;;;;;8.75;5.95;;;;;;;9.27;100.00;100790.13;5031734;28;20038;-53
2021/11/13 04:46:06;;;;;;;9.98;5.95;;;;;;;9.26;100.00;100802.06;5031996;28;20103;-52
2021/11/13 04:48:34;;;;;;;9.82;6.75;;;;;;;9.27;100.00;100799.09;5030872;28;20038;-52
2021/11/13 04:51:01;;;;;;;8.23;5.72;;;;;;;9.27;100.00;100799.09;5031555;28;20042;-52
2021/11/13 04:53:32;;;;;;;7.50;5.20;;;;;;;9.29;100.00;100796.94;5031491;28;20504;-52
2021/11/13 04:56:00;;;;;;;8.30;5.30;;;;;;;9.31;100.00;100796.69;5031787;28;20393;-52
2021/11/13 04:58:27;;;;;;;7.88;4.93;;;;;;;9.31;100.00;100797.50;5031759;28;20045;-52
2021/11/13 05:00:55;;;;;;;6.68;4.75;;;;;;;9.34;100.00;100801.59;5028364;28;20136;-53
2021/11/13 05:03:23;;;;;;;8.45;5.20;;;;;;;9.36;100.00;100808.41;5031347;28;20045;-53
2021/11/13 05:05:51;;;;;;;9.32;5.80;;;;;;;9.35;100.00;100801.31;5035347;28;20136;-53
2021/11/13 05:08:18;;;;;;;7.72;4.75;;;;;;;9.38;100.00;100800.81;5035734;28;20124;-54
2021/11/13 05:10:50;;;;;;;8.18;5.15;;;;;;;9.43;100.00;100804.63;5029635;28;20132;-52
2021/11/13 05:13:18;;;;;;;8.75;5.28;;;;;;;9.46;100.00;100804.94;5035171;28;20057;-53
2021/11/13 05:15:46;;;;;;;6.80;4.13;;;;;;;9.50;100.00;100806.06;5034901;28;20112;-51
2021/11/13 05:18:14;;;;;;;8.82;5.93;;;;;;;9.48;100.00;100816.38;5035116;28;20088;-51
2021/11/13 05:20:42;;;;;;;8.30;5.05;;;;;;;9.46;100.00;100809.56;5032010;28;20048;-52
2021/11/13 05:23:09;;;;;;;9.52;6.65;;;;;;;9.39;100.00;100816.03;5035057;28;20051;-49
2021/11/13 05:25:37;;;;;;;10.82;6.43;;;;;;;9.39;100.00;100817.94;5035149;28;20048;-51
2021/11/13 05:28:05;;;;;;;7.50;4.82;;;;;;;9.42;100.00;100822.03;5035362;28;20124;-49
2021/11/13 05:30:33;;;;;;;7.63;5.32;;;;;;;9.42;100.00;100814.69;5034942;28;20049;-53
2021/11/13 05:33:00;;;;;;;10.00;5.05;;;;;;;9.44;100.00;100815.25;5034228;28;20056;-53
2021/11/13 05:35:28;;;;;;;9.13;6.15;;;;;;;9.47;100.00;100819.34;5035229;28;20033;-53
2021/11/13 05:37:56;;;;;;;8.73;5.70;;;;;;;9.47;100.00;100824.78;5031462;28;20136;-51
2021/11/13 05:40:24;;;;;;;9.70;6.10;;;;;;;9.48;100.00;100827.25;5034990;28;20060;-52
2021/11/13 05:42:52;;;;;;;10.45;7.10;;;;;;;9.45;100.00;100827.75;5029526;28;20057;-48
2021/11/13 05:45:20;;;;;;;8.57;6.10;;;;;;;9.48;100.00;100829.97;5034400;28;20061;-49
2021/11/13 05:47:48;;;;;;;7.22;4.43;;;;;;;9.60;100.00;100827.88;5033810;28;20043;-48
2021/11/13 05:50:18;;;;;;;6.57;3.50;;;;;;;9.76;100.00;100831.50;5034116;28;20037;-50
2021/11/13 05:52:47;;;;;;;10.23;6.28;;;;;;;9.81;100.00;100837.03;5033674;28;20041;-50
2021/11/13 05:55:16;;;;;;;9.98;6.63;;;;;;;9.68;100.00;100840.19;5033806;28;20401;-48
2021/11/13 05:57:44;;;;;;;5.38;3.50;;;;;;;9.74;100.00;100841.03;5026989;28;20053;-48
2021/11/13 06:00:15;;;;;;;9.20;3.90;;;;;;;9.85;100.00;100839.22;5028742;28;20053;-51
2021/11/13 06:02:42;;;;;;;5.45;3.50;;;;;;;10.17;100.00;100826.34;5033788;28;20051;-49
2021/11/13 06:05:10;;;;;;;7.47;4.57;;;;;;;10.18;100.00;100833.41;5034182;28;20496;-51
2021/11/13 06:07:38;;;;;;;7.10;4.47;;;;;;;10.17;100.00;100826.34;5029728;28;20038;-51
2021/11/13 06:10:07;;;;;;;6.65;4.20;;;;;;;10.39;100.00;100830.78;5034326;28;20052;-48
2021/11/13 06:12:35;;;;;;;8.30;5.68;;;;;;;10.40;100.00;100835.16;5033691;28;20818;-49
2021/11/13 06:15:04;;;;;;;6.07;2.65;;;;;;;10.26;100.00;100834.78;5033731;28;20042;-51
2021/11/13 06:17:32;;;;;;;7.10;3.00;;;;;;;10.33;100.00;100834.59;5033245;28;20125;-51
2021/11/13 06:20:00;;;;;;;8.57;4.00;;;;;;;10.37;100.00;100841.16;5033882;28;20045;-50
2021/11/13 06:22:28;;;;;;;7.63;4.10;;;;;;;10.40;100.00;100840.63;5033310;28;20798;-50
2021/11/13 06:24:56;;;;;;;7.78;3.95;;;;;;;10.48;100.00;100852.88;5033969;28;20041;-49
2021/11/13 06:27:24;;;;;;;8.00;4.72;;;;;;;10.41;100.00;100853.13;5033657;28;20124;-50
2021/11/13 06:29:52;;;;;;;8.40;4.78;;;;;;;10.49;100.00;100858.09;5033728;28;20095;-51
2021/11/13 06:32:20;;;;;;;9.65;4.75;;;;;;;10.52;100.00;100860.28;5033098;28;20052;-52
2021/11/13 06:34:47;;;;;;;8.55;4.28;;;;;;;10.39;100.00;100864.31;5027674;28;20464;-49
2021/11/13 06:37:15;;;;;;;7.97;4.80;;;;;;;10.34;100.00;100858.00;5033802;28;20041;-51
2021/11/13 06:39:42;;;;;;;6.95;4.00;;;;;;;10.55;100.00;100865.19;5033655;28;20045;-52
2021/11/13 06:42:10;;;;;;;6.70;3.75;;;;;;;10.49;100.00;100863.53;5033319;28;20038;-53
2021/11/13 06:44:38;;;;;;;7.53;3.67;;;;;;;10.53;100.00;100872.78;5033192;28;20041;-52
2021/11/13 06:47:06;;;;;;;8.02;4.50;;;;;;;10.49;100.00;100865.44;5033181;28;20042;-53
2021/11/13 06:49:34;;;;;;;5.60;3.22;;;;;;;10.56;100.00;100869.56;5033402;28;20128;-53
2021/11/13 06:52:01;;;;;;;6.85;3.92;;;;;;;10.74;100.00;100878.31;5032665;28;20488;-53
2021/11/13 06:54:29;;;;;;;8.73;4.43;;;;;;;10.70;100.00;100877.22;5033683;28;20052;-53
2021/11/13 06:56:56;;;;;;;8.27;5.28;;;;;;;10.48;100.00;100883.66;5032878;28;20066;-53
2021/11/13 06:59:24;;;;;;;8.52;5.97;;;;;;;10.22;100.00;100890.84;5033084;28;20038;-51
2021/11/13 07:01:52;;;;;;;8.07;4.53;;;;;;;10.09;100.00;100888.63;5029802;28;20057;-52
2021/11/13 07:04:20;;;;;;;7.25;4.38;;;;;;;10.10;100.00;100891.09;5032592;28;20439;-49
2021/11/13 07:06:47;;;;;;;6.03;4.00;;;;;;;10.01;100.00;100892.66;5033408;28;20041;-52
2021/11/13 07:09:15;;;;;;;10.98;6.40;;;;;;;9.91;100.00;100893.41;5032861;28;20041;-50
2021/11/13 07:11:43;;;;;;;11.43;6.90;;;;;;;9.81;100.00;100896.88;5033041;28;20052;-51
2021/11/13 07:14:11;;;;;;;10.43;6.75;;;;;;;9.72;100.00;100909.31;5032537;28;20049;-52
2021/11/13 07:16:39;;;;;;;8.68;6.38;;;;;;;9.67;100.00;100912.00;5033033;28;20108;-52
2021/11/13 07:19:06;;;;;;;7.80;4.75;;;;;;;9.67;100.00;100912.00;5032720;28;20053;-53
2021/11/13 07:21:35;;;;;;;11.48;6.32;;;;;;;9.70;100.00;100907.94;5031180;28;20041;-48
2021/11/13 07:24:04;;;;;;;10.57;6.75;;;;;;;9.67;100.00;100903.00;5031478;28;20051;-51
2021/11/13 07:26:31;;;;;;;9.88;6.60;;;;;;;9.64;100.00;100907.06;5032842;28;20038;-52
2021/11/13 07:29:04;;;;;;;10.43;6.68;;;;;;;9.64;100.00;100914.41;5032480;28;20395;-49
2021/11/13 07:31:32;;;;;;;11.57;7.63;;;;;;;9.64;100.00;100914.41;5024406;28;20044;-52
2021/11/13 07:34:00;;;;;;;10.50;7.10;;;;;;;9.62;100.00;100917.41;5032833;28;20099;-52
2021/11/13 07:36:28;;;;;;;11.15;7.40;;;;;;;9.62;100.00;100922.84;5032095;28;20046;-50
2021/11/13 07:38:57;;;;;;;11.35;7.15;;;;;;;9.62;100.00;100924.72;5032292;28;20053;-52
2021/11/13 07:41:26;;;;;;;11.90;6.93;;;;;;;9.59;100.00;100926.06;5029560;28;20053;-51
2021/11/13 07:43:56;;;;;;;11.68;7.18;;;;;;;9.60;100.00;100938.59;5022343;28;20042;-52
2021/11/13 07:46:25;;;;;;;11.80;7.93;;;;;;;9.61;100.00;100942.97;5031811;28;20064;-49
2021/11/13 07:48:53;;;;;;;11.32;8.07;;;;;;;9.62;100.00;100944.63;5032386;28;20041;-53
2021/11/13 07:51:23;;;;;;;10.90;7.93;;;;;;;9.63;100.00;100950.88;5032473;28;20515;-53
2021/11/13 07:53:50;;;;;;;10.27;7.43;;;;;;;9.63;100.00;100954.41;5032605;28;20112;-50
2021/11/13 07:56:19;;;;;;;11.10;7.93;;;;;;;9.63;100.00;100948.97;5031557;28;20099;-52
2021/11/13 07:58:47;;;;;;;14.55;8.50;;;;;;;9.63;100.00;100954.41;5027405;28;20041;-52
2021/11/13 08:01:15;;;;;;;11.70;7.50;;;;;;;9.64;100.00;100947.06;5032307;28;20045;-52
2021/11/13 08:03:43;;;;;;;11.73;8.20;;;;;;;9.64;100.00;100947.88;5032102;28;20116;-52
2021/11/13 08:06:11;;;;;;;11.10;7.78;;;;;;;9.66;100.00;100944.91;5031202;28;20045;-52
2021/11/13 08:08:38;;;;;;;11.93;8.00;;;;;;;9.66;100.00;100956.59;5031879;28;20045;-53
2021/11/13 08:11:06;;;;;;;14.18;8.65;;;;;;;9.68;100.00;100953.63;5031914;28;20045;-50
2021/11/13 08:13:36;;;;;;;12.77;9.02;;;;;;;9.68;100.00;100954.44;5031907;28;20126;-52
2021/11/13 08:16:04;;;;;;;12.90;8.48;;;;;;;9.70;100.00;100952.28;5032012;28;20069;-49
2021/11/13 08:18:32;;;;;;;14.48;8.00;;;;;;;9.72;100.00;100950.13;5032216;28;20473;-52
2021/11/13 08:21:00;;;;;;;15.10;8.95;;;;;;;9.76;100.00;100951.25;5030428;28;20136;-52
2021/11/13 08:23:29;;;;;;;11.68;8.55;;;;;;;9.75;100.00;100957.78;5032037;28;20111;-52
2021/11/13 08:25:58;;;;;;;14.13;9.13;;;;;;;9.75;100.00;100962.41;5031430;28;20124;-52
2021/11/13 08:28:26;;;;;;;14.07;8.32;;;;;;;9.76;100.00;100967.56;5031403;28;20045;-52
2021/11/13 08:30:55;;;;;;;12.50;8.10;;;;;;;9.76;100.00;100967.56;5031950;28;20049;-52
2021/11/13 08:33:24;;;;;;;12.98;8.75;;;;;;;9.76;100.00;100967.56;5032146;28;20399;-50
2021/11/13 08:35:52;;;;;;;13.45;8.60;;;;;;;9.77;100.00;100963.78;5031757;28;20065;-49
2021/11/13 08:38:21;;;;;;;15.85;9.25;;;;;;;9.79;100.00;100964.34;5031445;28;20096;-49
2021/11/13 08:40:51;;;;;;;13.80;8.90;;;;;;;9.80;100.00;100967.88;5032920;28;20156;-49
2021/11/13 08:43:20;;;;;;;13.30;8.75;;;;;;;9.80;100.00;100968.69;5035540;28;20116;-48
2021/11/13 08:45:48;;;;;;;15.57;8.95;;;;;;;9.81;100.00;100973.09;5035901;28;20069;-50
2021/11/13 08:48:17;;;;;;;15.35;8.82;;;;;;;9.82;100.00;100968.44;5035233;28;20125;-48
2021/11/13 08:50:47;;;;;;;16.70;9.88;;;;;;;9.83;100.00;100967.34;5035430;28;20046;-51
2021/11/13 08:53:15;;;;;;;16.00;10.30;;;;;;;9.82;100.00;100966.53;5035369;28;20466;-51
2021/11/13 08:55:44;;;;;;;15.30;10.20;;;;;;;9.84;100.00;100962.72;5028282;28;20064;-49
2021/11/13 08:58:13;;;;;;;13.85;9.68;;;;;;;9.84;100.00;100969.03;5035466;28;20041;-48
2021/11/13 09:00:55;;;;;;;14.73;10.02;;;;;;;9.85;100.00;100976.09;5034252;28;20045;-52
2021/11/13 09:03:27;;;;;;;13.20;9.00;;;;;;;9.87;100.00;100976.66;5035913;28;20137;-52
2021/11/13 09:05:55;;;;;;;13.00;7.63;;;;;;;9.89;100.00;100971.78;5035475;28;20060;-49
2021/11/13 09:08:24;;;;;;;12.70;7.03;;;;;;;9.93;100.00;100977.50;5034883;28;20381;-48
2021/11/13 09:10:53;;;;;;;13.93;8.23;;;;;;;9.95;100.00;100980.78;5034891;28;20051;-50
2021/11/13 09:13:23;;;;;;;15.45;8.85;;;;;;;9.96;100.00;100977.00;5035544;28;20059;-49
2021/11/13 09:15:51;;;;;;;13.48;9.35;;;;;;;9.95;100.00;100980.78;5033585;28;20052;-52
2021/11/13 09:18:20;;;;;;;13.25;9.23;;;;;;;9.94;100.00;100979.97;5035089;28;20052;-51
2021/11/13 09:20:48;;;;;;;16.60;10.15;;;;;;;9.94;100.00;100973.72;5029926;28;20543;-51
2021/11/13 09:23:16;;;;;;;15.18;10.10;;;;;;;9.95;100.00;100987.06;5034720;28;20050;-48
2021/11/13 09:25:45;;;;;;;13.80;10.15;;;;;;;9.95;100.00;100984.34;5034862;28;20048;-50
2021/11/13 09:28:13;;;;;;;15.63;9.80;;;;;;;9.97;100.00;100984.91;5035032;28;20069;-50
2021/11/13 09:30:41;;;;;;;17.08;10.70;;;;;;;9.99;100.00;100987.38;5034989;28;20045;-52
2021/11/13 09:33:10;;;;;;;13.70;9.82;;;;;;;9.99;100.00;100990.09;5035542;28;20029;-51
2021/11/13 09:35:41;;;;;;;14.95;9.75;;;;;;;10.00;100.00;100995.25;5031581;28;20066;-50
2021/11/13 09:38:24;;;;;;;13.40;8.68;;;;;;;10.03;100.00;101004.84;5034381;28;20025;-54
2021/11/13 09:40:54;;;;;;;14.45;10.38;;;;;;;10.03;100.00;101000.19;5028044;28;20061;-55
2021/11/13 09:43:24;;;;;;;18.95;10.20;;;;;;;10.05;100.00;100999.94;5024293;28;20091;-51
2021/11/13 09:45:55;;;;;;;15.68;10.60;;;;;;;10.06;100.00;101003.50;5039173;28;20037;-51
2021/11/13 09:48:23;;;;;;;16.63;10.60;;;;;;;10.06;100.00;101012.47;5036608;28;20052;-50
2021/11/13 09:50:51;;;;;;;16.33;10.43;;;;;;;10.08;100.00;101013.03;5023430;28;20076;-45
2021/11/13 09:53:20;;;;;;;14.30;9.55;;;;;;;10.11;100.00;101017.94;5022839;28;20484;-47
2021/11/13 09:55:49;;;;;;;13.77;9.25;;;;;;;10.13;100.00;101014.97;5030457;28;20052;-48
2021/11/13 09:58:17;;;;;;;13.07;9.10;;;;;;;10.16;100.00;101014.47;5027113;28;20045;-49
2021/11/13 10:00:45;;;;;;;13.35;8.93;;;;;;;10.17;100.00;101013.34;5033642;28;20040;-48
2021/11/13 10:03:20;;;;;;;17.33;9.98;;;;;;;10.22;100.00;101016.13;5033491;28;20087;-45
2021/11/13 10:06:02;;;;;;;13.75;8.77;;;;;;;10.22;100.00;101019.69;5033311;28;20041;-48
2021/11/13 10:08:30;;;;;;;12.68;9.18;;;;;;;10.22;100.00;101014.25;5030061;28;20041;-48
2021/11/13 10:11:01;;;;;;;11.65;8.63;;;;;;;10.25;100.00;101021.06;5025437;28;20093;-45
2021/11/13 10:13:37;;;;;;;12.45;8.57;;;;;;;10.27;100.00;101026.22;5030390;28;20496;-48
2021/11/13 10:16:07;;;;;;;11.07;8.15;;;;;;;10.28;100.00;101028.75;5033370;28;20053;-49
2021/11/13 10:18:42;;;;;;;12.35;7.95;;;;;;;10.30;100.00;101036.66;5023077;28;21109;-48
2021/11/13 10:21:13;;;;;;;12.02;8.48;;;;;;;10.32;100.00;101031.75;5029272;28;20048;-47
2021/11/13 10:23:47;;;;;;;12.35;7.85;;;;;;;10.32;100.00;101034.47;5033189;28;20041;-49
2021/11/13 10:26:20;;;;;;;14.05;8.25;;;;;;;10.34;100.00;101035.88;5033834;28;20527;-45
2021/11/13 10:28:47;;;;;;;11.65;8.20;;;;;;;10.37;100.00;101031.81;5033520;28;20042;-49
2021/11/13 10:31:22;;;;;;;11.55;8.20;;;;;;;10.39;100.00;101040.50;5033628;28;20046;-47
2021/11/13 10:33:52;;;;;;;11.82;7.75;;;;;;;10.42;100.00;101040.81;5033912;28;20033;-48
2021/11/13 10:36:23;;;;;;;13.52;7.72;;;;;;;10.46;100.00;101041.09;5032747;28;20030;-48
2021/11/13 10:38:57;;;;;;;10.57;6.75;;;;;;;10.48;100.00;101043.59;5033490;28;20053;-47
2021/11/13 10:41:25;;;;;;;11.65;7.03;;;;;;;10.48;100.00;101038.94;5033423;28;20103;-46
2021/11/13 10:43:53;;;;;;;11.48;6.95;;;;;;;10.49;100.00;101046.06;5033708;28;20048;-48
2021/11/13 10:46:24;;;;;;;12.25;7.10;;;;;;;10.49;100.00;101039.78;5033706;28;20049;-48
2021/11/13 10:48:56;;;;;;;10.02;6.45;;;;;;;10.50;100.00;101041.41;5033324;28;20049;-48
2021/11/13 10:51:30;;;;;;;11.82;7.32;;;;;;;10.52;100.00;101044.72;5032904;28;20037;-47
2021/11/13 10:54:11;;;;;;;10.98;7.45;;;;;;;10.53;100.00;101041.69;5033066;28;20050;-48
2021/11/13 10:56:54;;;;;;;10.85;7.50;;;;;;;10.55;100.00;101041.44;5031672;28;20052;-48
2021/11/13 10:59:39;;;;;;;11.07;7.50;;;;;;;10.57;100.00;101037.38;5033009;28;20045;-47
2021/11/13 11:02:13;;;;;;;9.70;6.90;;;;;;;10.58;100.00;101030.88;5031580;28;20416;-49
2021/11/13 11:04:46;;;;;;;12.50;7.72;;;;;;;10.61;100.00;101032.25;5032968;28;20065;-46
2021/11/13 11:07:24;;;;;;;10.50;7.65;;;;;;;10.63;100.00;101036.34;5032658;28;20041;-52
2021/11/13 11:10:04;;;;;;;12.38;7.68;;;;;;;10.64;100.00;101032.53;5033395;28;20053;-53
2021/11/13 11:12:34;;;;;;;8.45;6.40;;;;;;;10.68;100.00;101037.44;5032618;28;20030;-56
2021/11/13 11:15:06;;;;;;;12.60;7.90;;;;;;;10.70;100.00;101030.63;5033290;28;20047;-55
2021/11/13 11:17:34;;;;;;;11.65;7.35;;;;;;;10.75;100.00;101032.56;5022985;28;20045;-49
2021/11/13 11:20:10;;;;;;;10.70;6.47;;;;;;;10.75;100.00;101038.03;5032362;28;20405;-51
2021/11/13 11:22:38;;;;;;;12.20;7.22;;;;;;;10.75;100.00;101033.41;5031097;28;20045;-53
2021/11/13 11:25:12;;;;;;;12.50;7.65;;;;;;;10.76;100.00;101028.78;5032454;28;20041;-55
2021/11/13 11:27:46;;;;;;;14.50;7.60;;;;;;;10.78;100.00;101035.59;5032066;28;20060;-52